sensor_id;sensor_type;location;lat;lon;timestamp;temperature;humidity
11005;DHT22;5555;59.622;16.556;2023-04-03T00:01:00;-3.10;99.90
11005;DHT22;5555;59.622;16.556;2023-04-03T00:03:26;-3.20;99.90
11005;DHT22;5555;59.622;16.556;2023-04-03T00:05:51;-3.20;99.90
11005;DHT22;5555;59.622;16.556;2023-04-03T00:08:17;-3.20;99.90
11005;DHT22;5555;59.622;16.556;2023-04-03T00:10:43;-3.20;99.90
11005;DHT22;5555;59.622;16.556;2023-04-03T00:13:09;-3.20;99.90
11005;DHT22;5555;59.622;16.556;2023-04-03T00:15:36;-3.20;99.90
11005;DHT22;5555;59.622;16.556;2023-04-03T00:18:04;-3.20;99.90
11005;DHT22;5555;59.622;16.556;2023-04-03T00:20:30;-3.30;99.90
11005;DHT22;5555;59.622;16.556;2023-04-03T00:22:56;-3.30;99.90
11005;DHT22;5555;59.622;16.556;2023-04-03T00:25:22;-3.30;99.90
11005;DHT22;5555;59.622;16.556;2023-04-03T00:27:48;-3.20;99.90
11005;DHT22;5555;59.622;16.556;2023-04-03T00:30:16;-3.20;99.90
11005;DHT22;5555;59.622;16.556;2023-04-03T00:32:42;-3.20;99.90
11005;DHT22;5555;59.622;16.556;2023-04-03T00:35:08;-3.20;99.90
11005;DHT22;5555;59.622;16.556;2023-04-03T00:37:34;-3.20;99.90
11005;DHT22;5555;59.622;16.556;2023-04-03T00:40:00;-3.20;99.90
11005;DHT22;5555;59.622;16.556;2023-04-03T00:42:25;-3.20;99.90
11005;DHT22;5555;59.622;16.556;2023-04-03T00:47:24;-3.30;99.90
11005;DHT22;5555;59.622;16.556;2023-04-03T00:49:50;-3.20;99.90
11005;DHT22;5555;59.622;16.556;2023-04-03T00:52:21;-3.30;99.90
11005;DHT22;5555;59.622;16.556;2023-04-03T00:54:50;-3.20;99.90
11005;DHT22;5555;59.622;16.556;2023-04-03T00:57:17;-3.20;99.90
11005;DHT22;5555;59.622;16.556;2023-04-03T00:59:47;-3.20;99.90
11005;DHT22;5555;59.622;16.556;2023-04-03T01:02:15;-3.20;99.90
11005;DHT22;5555;59.622;16.556;2023-04-03T01:04:42;-3.20;99.90
11005;DHT22;5555;59.622;16.556;2023-04-03T01:07:12;-3.20;99.90
11005;DHT22;5555;59.622;16.556;2023-04-03T01:09:39;-3.20;99.90
11005;DHT22;5555;59.622;16.556;2023-04-03T01:12:20;-3.30;99.90
11005;DHT22;5555;59.622;16.556;2023-04-03T01:14:49;-3.40;99.90
11005;DHT22;5555;59.622;16.556;2023-04-03T01:17:40;-3.40;99.90
11005;DHT22;5555;59.622;16.556;2023-04-03T01:25:51;-3.60;99.90
11005;DHT22;5555;59.622;16.556;2023-04-03T01:28:33;-3.70;99.90
11005;DHT22;5555;59.622;16.556;2023-04-03T01:33:45;-3.70;99.90
11005;DHT22;5555;59.622;16.556;2023-04-03T01:36:16;-3.60;99.90
11005;DHT22;5555;59.622;16.556;2023-04-03T01:38:42;-3.60;99.90
11005;DHT22;5555;59.622;16.556;2023-04-03T01:41:07;-3.60;99.90
11005;DHT22;5555;59.622;16.556;2023-04-03T01:43:33;-3.60;99.90
11005;DHT22;5555;59.622;16.556;2023-04-03T01:45:59;-3.70;99.90
11005;DHT22;5555;59.622;16.556;2023-04-03T01:48:24;-3.70;99.90
11005;DHT22;5555;59.622;16.556;2023-04-03T01:50:50;-3.70;99.90
11005;DHT22;5555;59.622;16.556;2023-04-03T01:53:16;-3.60;99.90
11005;DHT22;5555;59.622;16.556;2023-04-03T01:55:41;-3.60;99.90
11005;DHT22;5555;59.622;16.556;2023-04-03T01:58:07;-3.60;99.90
11005;DHT22;5555;59.622;16.556;2023-04-03T02:00:33;-3.60;99.90
11005;DHT22;5555;59.622;16.556;2023-04-03T02:02:58;-3.60;99.90
11005;DHT22;5555;59.622;16.556;2023-04-03T02:05:24;-3.70;99.90
11005;DHT22;5555;59.622;16.556;2023-04-03T02:07:50;-3.70;99.90
11005;DHT22;5555;59.622;16.556;2023-04-03T02:10:16;-3.70;99.90
11005;DHT22;5555;59.622;16.556;2023-04-03T02:12:42;-3.70;99.90
11005;DHT22;5555;59.622;16.556;2023-04-03T02:15:09;-3.70;99.90
11005;DHT22;5555;59.622;16.556;2023-04-03T02:17:35;-3.70;99.90
11005;DHT22;5555;59.622;16.556;2023-04-03T02:20:00;-3.80;99.90
11005;DHT22;5555;59.622;16.556;2023-04-03T02:22:26;-3.80;99.90
11005;DHT22;5555;59.622;16.556;2023-04-03T02:24:52;-3.80;99.90
11005;DHT22;5555;59.622;16.556;2023-04-03T02:27:17;-3.80;99.90
11005;DHT22;5555;59.622;16.556;2023-04-03T02:29:43;-3.90;99.90
11005;DHT22;5555;59.622;16.556;2023-04-03T02:32:09;-3.90;99.90
11005;DHT22;5555;59.622;16.556;2023-04-03T02:34:35;-3.80;99.90
11005;DHT22;5555;59.622;16.556;2023-04-03T02:37:00;-3.90;99.90
11005;DHT22;5555;59.622;16.556;2023-04-03T02:39:26;-3.90;99.90
11005;DHT22;5555;59.622;16.556;2023-04-03T02:41:52;-3.90;99.90
11005;DHT22;5555;59.622;16.556;2023-04-03T02:44:17;-3.90;99.90
11005;DHT22;5555;59.622;16.556;2023-04-03T02:46:44;-3.90;99.90
11005;DHT22;5555;59.622;16.556;2023-04-03T02:49:10;-4.00;99.90
11005;DHT22;5555;59.622;16.556;2023-04-03T02:51:35;-4.00;99.90
11005;DHT22;5555;59.622;16.556;2023-04-03T02:54:01;-4.00;99.90
11005;DHT22;5555;59.622;16.556;2023-04-03T02:56:26;-4.10;99.90
11005;DHT22;5555;59.622;16.556;2023-04-03T02:58:52;-4.10;99.90
11005;DHT22;5555;59.622;16.556;2023-04-03T03:01:18;-4.20;99.90
11005;DHT22;5555;59.622;16.556;2023-04-03T03:03:44;-4.20;99.90
11005;DHT22;5555;59.622;16.556;2023-04-03T03:06:15;-4.30;99.90
11005;DHT22;5555;59.622;16.556;2023-04-03T03:08:41;-4.30;99.90
11005;DHT22;5555;59.622;16.556;2023-04-03T03:11:07;-4.30;99.90
11005;DHT22;5555;59.622;16.556;2023-04-03T03:13:33;-4.30;99.90
11005;DHT22;5555;59.622;16.556;2023-04-03T03:16:00;-4.30;99.90
11005;DHT22;5555;59.622;16.556;2023-04-03T03:18:26;-4.40;99.90
11005;DHT22;5555;59.622;16.556;2023-04-03T03:20:56;-4.40;99.90
11005;DHT22;5555;59.622;16.556;2023-04-03T03:23:23;-4.50;99.90
11005;DHT22;5555;59.622;16.556;2023-04-03T03:25:58;-4.40;99.90
11005;DHT22;5555;59.622;16.556;2023-04-03T03:28:24;-4.50;99.90
11005;DHT22;5555;59.622;16.556;2023-04-03T03:30:50;-4.50;99.90
11005;DHT22;5555;59.622;16.556;2023-04-03T03:33:17;-4.50;99.90
11005;DHT22;5555;59.622;16.556;2023-04-03T03:35:43;-4.50;99.90
11005;DHT22;5555;59.622;16.556;2023-04-03T03:38:09;-4.50;99.90
11005;DHT22;5555;59.622;16.556;2023-04-03T03:40:35;-4.50;99.90
11005;DHT22;5555;59.622;16.556;2023-04-03T03:43:01;-4.50;99.90
11005;DHT22;5555;59.622;16.556;2023-04-03T03:45:26;-4.60;99.90
11005;DHT22;5555;59.622;16.556;2023-04-03T03:47:52;-4.60;99.90
11005;DHT22;5555;59.622;16.556;2023-04-03T03:50:18;-4.60;99.90
11005;DHT22;5555;59.622;16.556;2023-04-03T03:52:43;-4.70;99.90
11005;DHT22;5555;59.622;16.556;2023-04-03T03:55:10;-4.60;99.90
11005;DHT22;5555;59.622;16.556;2023-04-03T03:57:36;-4.50;99.90
11005;DHT22;5555;59.622;16.556;2023-04-03T04:00:02;-4.50;99.90
11005;DHT22;5555;59.622;16.556;2023-04-03T04:02:28;-4.50;99.90
11005;DHT22;5555;59.622;16.556;2023-04-03T04:04:54;-4.50;99.90
11005;DHT22;5555;59.622;16.556;2023-04-03T04:07:20;-4.50;99.90
11005;DHT22;5555;59.622;16.556;2023-04-03T04:09:45;-4.50;99.90
11005;DHT22;5555;59.622;16.556;2023-04-03T04:12:11;-4.50;99.90
11005;DHT22;5555;59.622;16.556;2023-04-03T04:14:36;-4.50;99.90
11005;DHT22;5555;59.622;16.556;2023-04-03T04:17:02;-4.50;99.90
11005;DHT22;5555;59.622;16.556;2023-04-03T04:19:28;-4.50;99.90
11005;DHT22;5555;59.622;16.556;2023-04-03T04:21:54;-4.50;99.90
11005;DHT22;5555;59.622;16.556;2023-04-03T04:24:20;-4.60;99.90
11005;DHT22;5555;59.622;16.556;2023-04-03T04:26:45;-4.50;99.90
11005;DHT22;5555;59.622;16.556;2023-04-03T04:29:11;-4.50;99.90
11005;DHT22;5555;59.622;16.556;2023-04-03T04:31:37;-4.50;99.90
11005;DHT22;5555;59.622;16.556;2023-04-03T04:34:02;-4.50;99.90
11005;DHT22;5555;59.622;16.556;2023-04-03T04:36:28;-4.40;99.90
11005;DHT22;5555;59.622;16.556;2023-04-03T04:38:53;-4.40;99.90
11005;DHT22;5555;59.622;16.556;2023-04-03T04:41:22;-4.40;99.90
11005;DHT22;5555;59.622;16.556;2023-04-03T04:43:52;-4.40;99.90
11005;DHT22;5555;59.622;16.556;2023-04-03T04:46:18;-4.30;99.90
11005;DHT22;5555;59.622;16.556;2023-04-03T04:48:44;-4.30;99.90
11005;DHT22;5555;59.622;16.556;2023-04-03T04:51:09;-4.20;99.90
11005;DHT22;5555;59.622;16.556;2023-04-03T04:53:35;-4.20;99.90
11005;DHT22;5555;59.622;16.556;2023-04-03T04:56:01;-4.10;99.90
11005;DHT22;5555;59.622;16.556;2023-04-03T04:58:27;-4.10;99.90
11005;DHT22;5555;59.622;16.556;2023-04-03T05:01:00;-4.10;99.90
11005;DHT22;5555;59.622;16.556;2023-04-03T05:03:26;-4.10;99.90
11005;DHT22;5555;59.622;16.556;2023-04-03T05:05:51;-4.00;99.90
11005;DHT22;5555;59.622;16.556;2023-04-03T05:08:17;-4.00;99.90
11005;DHT22;5555;59.622;16.556;2023-04-03T05:10:45;-4.00;99.90
11005;DHT22;5555;59.622;16.556;2023-04-03T05:13:11;-3.90;99.90
11005;DHT22;5555;59.622;16.556;2023-04-03T05:15:37;-3.90;99.90
11005;DHT22;5555;59.622;16.556;2023-04-03T05:18:02;-3.90;99.90
11005;DHT22;5555;59.622;16.556;2023-04-03T05:20:28;-3.80;99.90
11005;DHT22;5555;59.622;16.556;2023-04-03T05:22:54;-3.80;99.90
11005;DHT22;5555;59.622;16.556;2023-04-03T05:25:19;-3.70;99.90
11005;DHT22;5555;59.622;16.556;2023-04-03T05:27:45;-3.60;99.90
11005;DHT22;5555;59.622;16.556;2023-04-03T05:30:11;-3.60;99.90
11005;DHT22;5555;59.622;16.556;2023-04-03T05:32:37;-3.40;99.90
11005;DHT22;5555;59.622;16.556;2023-04-03T05:35:04;-3.40;99.90
11005;DHT22;5555;59.622;16.556;2023-04-03T05:37:29;-3.20;99.90
11005;DHT22;5555;59.622;16.556;2023-04-03T05:39:55;-3.10;99.90
11005;DHT22;5555;59.622;16.556;2023-04-03T05:42:21;-3.10;99.90
11005;DHT22;5555;59.622;16.556;2023-04-03T05:44:46;-3.00;99.90
11005;DHT22;5555;59.622;16.556;2023-04-03T05:47:12;-2.90;99.90
11005;DHT22;5555;59.622;16.556;2023-04-03T05:49:38;-2.80;99.90
11005;DHT22;5555;59.622;16.556;2023-04-03T05:52:12;-2.70;99.90
11005;DHT22;5555;59.622;16.556;2023-04-03T05:54:42;-2.60;99.90
11005;DHT22;5555;59.622;16.556;2023-04-03T05:57:09;-2.40;99.90
11005;DHT22;5555;59.622;16.556;2023-04-03T05:59:35;-2.40;99.90
11005;DHT22;5555;59.622;16.556;2023-04-03T06:02:01;-2.30;99.90
11005;DHT22;5555;59.622;16.556;2023-04-03T06:04:27;-2.30;99.90
11005;DHT22;5555;59.622;16.556;2023-04-03T06:06:55;-2.30;99.90
11005;DHT22;5555;59.622;16.556;2023-04-03T06:09:25;-2.20;99.90
11005;DHT22;5555;59.622;16.556;2023-04-03T06:11:52;-2.10;99.90
11005;DHT22;5555;59.622;16.556;2023-04-03T06:14:18;-2.00;99.90
11005;DHT22;5555;59.622;16.556;2023-04-03T06:16:44;-2.00;99.90
11005;DHT22;5555;59.622;16.556;2023-04-03T06:19:11;-1.90;99.90
11005;DHT22;5555;59.622;16.556;2023-04-03T06:21:37;-1.80;99.90
11005;DHT22;5555;59.622;16.556;2023-04-03T06:24:05;-1.80;99.90
11005;DHT22;5555;59.622;16.556;2023-04-03T06:26:32;-1.80;99.90
11005;DHT22;5555;59.622;16.556;2023-04-03T06:28:58;-1.70;99.90
11005;DHT22;5555;59.622;16.556;2023-04-03T06:31:24;-1.60;99.90
11005;DHT22;5555;59.622;16.556;2023-04-03T06:33:49;-1.60;99.90
11005;DHT22;5555;59.622;16.556;2023-04-03T06:36:17;-1.50;99.90
11005;DHT22;5555;59.622;16.556;2023-04-03T06:38:45;-1.40;99.90
11005;DHT22;5555;59.622;16.556;2023-04-03T06:41:11;-1.30;99.90
11005;DHT22;5555;59.622;16.556;2023-04-03T06:43:37;-1.30;99.90
11005;DHT22;5555;59.622;16.556;2023-04-03T06:46:02;-1.40;99.90
11005;DHT22;5555;59.622;16.556;2023-04-03T06:48:28;-1.20;99.90
11005;DHT22;5555;59.622;16.556;2023-04-03T06:50:54;-1.10;99.90
11005;DHT22;5555;59.622;16.556;2023-04-03T06:53:20;-0.90;99.90
11005;DHT22;5555;59.622;16.556;2023-04-03T06:55:46;-0.90;99.90
11005;DHT22;5555;59.622;16.556;2023-04-03T06:58:12;-1.00;99.90
11005;DHT22;5555;59.622;16.556;2023-04-03T07:00:39;-1.00;99.90
11005;DHT22;5555;59.622;16.556;2023-04-03T07:03:05;-0.80;99.90
11005;DHT22;5555;59.622;16.556;2023-04-03T07:05:33;-0.70;99.90
11005;DHT22;5555;59.622;16.556;2023-04-03T07:07:59;-0.60;99.90
11005;DHT22;5555;59.622;16.556;2023-04-03T07:10:25;-0.50;99.90
11005;DHT22;5555;59.622;16.556;2023-04-03T07:12:51;-0.60;99.90
11005;DHT22;5555;59.622;16.556;2023-04-03T07:15:16;-0.60;99.90
11005;DHT22;5555;59.622;16.556;2023-04-03T07:17:42;-0.60;99.90
11005;DHT22;5555;59.622;16.556;2023-04-03T07:20:08;-0.70;99.90
11005;DHT22;5555;59.622;16.556;2023-04-03T07:22:34;-0.60;99.90
11005;DHT22;5555;59.622;16.556;2023-04-03T07:25:00;-0.50;99.90
11005;DHT22;5555;59.622;16.556;2023-04-03T07:27:26;-0.50;99.90
11005;DHT22;5555;59.622;16.556;2023-04-03T07:29:52;-0.30;99.90
11005;DHT22;5555;59.622;16.556;2023-04-03T07:32:17;-0.30;99.90
11005;DHT22;5555;59.622;16.556;2023-04-03T07:34:44;-0.30;99.90
11005;DHT22;5555;59.622;16.556;2023-04-03T07:37:10;-0.10;99.90
11005;DHT22;5555;59.622;16.556;2023-04-03T07:39:36;-0.10;99.90
11005;DHT22;5555;59.622;16.556;2023-04-03T07:42:02;0.00;99.90
11005;DHT22;5555;59.622;16.556;2023-04-03T07:44:28;0.20;99.90
11005;DHT22;5555;59.622;16.556;2023-04-03T07:46:54;0.40;99.90
11005;DHT22;5555;59.622;16.556;2023-04-03T07:49:21;0.30;99.90
11005;DHT22;5555;59.622;16.556;2023-04-03T07:51:49;0.40;99.90
11005;DHT22;5555;59.622;16.556;2023-04-03T07:54:15;0.40;99.90
11005;DHT22;5555;59.622;16.556;2023-04-03T07:56:41;0.60;99.90
11005;DHT22;5555;59.622;16.556;2023-04-03T07:59:09;0.50;99.90
11005;DHT22;5555;59.622;16.556;2023-04-03T08:01:34;0.50;99.90
11005;DHT22;5555;59.622;16.556;2023-04-03T08:04:00;0.60;99.90
11005;DHT22;5555;59.622;16.556;2023-04-03T08:06:26;0.80;99.90
11005;DHT22;5555;59.622;16.556;2023-04-03T08:08:52;0.90;99.90
11005;DHT22;5555;59.622;16.556;2023-04-03T08:11:17;0.70;99.90
11005;DHT22;5555;59.622;16.556;2023-04-03T08:13:44;1.00;99.90
11005;DHT22;5555;59.622;16.556;2023-04-03T08:16:16;1.10;99.90
11005;DHT22;5555;59.622;16.556;2023-04-03T08:18:43;1.10;99.90
11005;DHT22;5555;59.622;16.556;2023-04-03T08:21:11;1.20;99.90
11005;DHT22;5555;59.622;16.556;2023-04-03T08:23:38;1.30;99.90
11005;DHT22;5555;59.622;16.556;2023-04-03T08:26:16;1.30;99.90
11005;DHT22;5555;59.622;16.556;2023-04-03T08:28:42;1.40;99.90
11005;DHT22;5555;59.622;16.556;2023-04-03T08:31:12;1.40;99.90
11005;DHT22;5555;59.622;16.556;2023-04-03T08:33:39;1.70;99.90
11005;DHT22;5555;59.622;16.556;2023-04-03T08:36:07;1.60;99.90
11005;DHT22;5555;59.622;16.556;2023-04-03T08:38:33;1.40;99.90
11005;DHT22;5555;59.622;16.556;2023-04-03T08:41:25;1.70;99.90
11005;DHT22;5555;59.622;16.556;2023-04-03T08:49:31;2.30;99.90
11005;DHT22;5555;59.622;16.556;2023-04-03T08:51:59;2.20;99.90
11005;DHT22;5555;59.622;16.556;2023-04-03T08:54:35;2.10;99.90
11005;DHT22;5555;59.622;16.556;2023-04-03T08:57:04;2.10;99.90
11005;DHT22;5555;59.622;16.556;2023-04-03T08:59:34;2.00;99.90
11005;DHT22;5555;59.622;16.556;2023-04-03T09:02:04;2.10;99.90
11005;DHT22;5555;59.622;16.556;2023-04-03T09:04:39;2.10;99.90
11005;DHT22;5555;59.622;16.556;2023-04-03T09:07:11;2.30;99.90
11005;DHT22;5555;59.622;16.556;2023-04-03T09:09:41;2.30;99.90
11005;DHT22;5555;59.622;16.556;2023-04-03T09:12:23;2.50;99.90
11005;DHT22;5555;59.622;16.556;2023-04-03T09:15:14;2.70;99.90
11005;DHT22;5555;59.622;16.556;2023-04-03T09:17:44;2.50;99.90
11005;DHT22;5555;59.622;16.556;2023-04-03T09:20:21;2.60;99.90
11005;DHT22;5555;59.622;16.556;2023-04-03T09:22:50;2.40;99.90
11005;DHT22;5555;59.622;16.556;2023-04-03T09:25:31;2.50;99.90
11005;DHT22;5555;59.622;16.556;2023-04-03T09:28:00;2.60;99.90
11005;DHT22;5555;59.622;16.556;2023-04-03T09:30:29;2.70;99.90
11005;DHT22;5555;59.622;16.556;2023-04-03T09:32:56;2.80;99.90
11005;DHT22;5555;59.622;16.556;2023-04-03T09:35:30;2.80;99.90
11005;DHT22;5555;59.622;16.556;2023-04-03T09:40:49;2.50;99.90
11005;DHT22;5555;59.622;16.556;2023-04-03T09:45:48;2.90;99.90
11005;DHT22;5555;59.622;16.556;2023-04-03T09:50:52;3.30;99.90
11005;DHT22;5555;59.622;16.556;2023-04-03T09:53:38;3.50;99.90
11005;DHT22;5555;59.622;16.556;2023-04-03T10:04:14;3.60;99.90
11005;DHT22;5555;59.622;16.556;2023-04-03T10:06:51;4.00;99.90
11005;DHT22;5555;59.622;16.556;2023-04-03T10:09:31;3.60;99.90
11005;DHT22;5555;59.622;16.556;2023-04-03T10:12:24;3.70;99.90
11005;DHT22;5555;59.622;16.556;2023-04-03T10:20:03;3.90;99.90
11005;DHT22;5555;59.622;16.556;2023-04-03T10:25:23;4.30;99.90
11005;DHT22;5555;59.622;16.556;2023-04-03T10:28:01;4.20;99.90
11005;DHT22;5555;59.622;16.556;2023-04-03T10:38:33;4.60;99.60
11005;DHT22;5555;59.622;16.556;2023-04-03T10:41:24;4.70;99.90
11005;DHT22;5555;59.622;16.556;2023-04-03T10:44:21;4.60;99.90
11005;DHT22;5555;59.622;16.556;2023-04-03T10:47:10;4.50;99.90
11005;DHT22;5555;59.622;16.556;2023-04-03T10:58:05;5.20;99.90
11005;DHT22;5555;59.622;16.556;2023-04-03T11:00:47;5.70;99.90
11005;DHT22;5555;59.622;16.556;2023-04-03T11:06:03;6.00;99.60
11005;DHT22;5555;59.622;16.556;2023-04-03T11:09:00;6.20;99.90
11005;DHT22;5555;59.622;16.556;2023-04-03T11:11:35;6.20;99.80
11005;DHT22;5555;59.622;16.556;2023-04-03T11:16:48;5.90;97.40
11005;DHT22;5555;59.622;16.556;2023-04-03T11:22:10;6.10;97.90
11005;DHT22;5555;59.622;16.556;2023-04-03T11:24:40;5.90;98.50
11005;DHT22;5555;59.622;16.556;2023-04-03T11:27:17;6.20;97.80
11005;DHT22;5555;59.622;16.556;2023-04-03T11:29:47;6.70;96.40
11005;DHT22;5555;59.622;16.556;2023-04-03T11:35:18;7.10;92.70
11005;DHT22;5555;59.622;16.556;2023-04-03T11:37:48;7.00;92.00
11005;DHT22;5555;59.622;16.556;2023-04-03T11:42:46;7.20;92.40
11005;DHT22;5555;59.622;16.556;2023-04-03T11:47:45;7.50;85.00
11005;DHT22;5555;59.622;16.556;2023-04-03T11:50:30;7.60;84.00
11005;DHT22;5555;59.622;16.556;2023-04-03T11:52:58;7.20;85.10
11005;DHT22;5555;59.622;16.556;2023-04-03T12:14:04;9.00;84.60
11005;DHT22;5555;59.622;16.556;2023-04-03T12:16:48;9.20;82.70
11005;DHT22;5555;59.622;16.556;2023-04-03T12:35:17;9.80;82.30
11005;DHT22;5555;59.622;16.556;2023-04-03T12:41:28;9.60;78.50
11005;DHT22;5555;59.622;16.556;2023-04-03T12:46:49;9.70;77.50
11005;DHT22;5555;59.622;16.556;2023-04-03T12:49:37;10.30;80.10
11005;DHT22;5555;59.622;16.556;2023-04-03T12:52:29;11.70;74.50
11005;DHT22;5555;59.622;16.556;2023-04-03T12:54:56;11.70;72.60
11005;DHT22;5555;59.622;16.556;2023-04-03T12:57:26;10.60;74.90
11005;DHT22;5555;59.622;16.556;2023-04-03T12:59:53;11.10;74.50
11005;DHT22;5555;59.622;16.556;2023-04-03T13:02:30;11.50;75.30
11005;DHT22;5555;59.622;16.556;2023-04-03T13:05:17;11.20;72.00
11005;DHT22;5555;59.622;16.556;2023-04-03T13:07:44;11.60;72.80
11005;DHT22;5555;59.622;16.556;2023-04-03T13:10:16;10.80;76.30
11005;DHT22;5555;59.622;16.556;2023-04-03T13:13:13;10.40;73.00
11005;DHT22;5555;59.622;16.556;2023-04-03T13:15:44;10.20;74.40
11005;DHT22;5555;59.622;16.556;2023-04-03T13:18:29;9.70;74.50
11005;DHT22;5555;59.622;16.556;2023-04-03T13:23:35;10.90;72.00
11005;DHT22;5555;59.622;16.556;2023-04-03T13:26:03;10.80;73.60
11005;DHT22;5555;59.622;16.556;2023-04-03T13:28:31;11.20;73.00
11005;DHT22;5555;59.622;16.556;2023-04-03T13:33:29;11.30;70.90
11005;DHT22;5555;59.622;16.556;2023-04-03T13:38:32;10.90;70.30
11005;DHT22;5555;59.622;16.556;2023-04-03T13:41:03;11.10;69.50
11005;DHT22;5555;59.622;16.556;2023-04-03T13:43:36;10.00;70.30
11005;DHT22;5555;59.622;16.556;2023-04-03T13:48:43;9.80;71.20
11005;DHT22;5555;59.622;16.556;2023-04-03T13:59:04;10.40;68.40
11005;DHT22;5555;59.622;16.556;2023-04-03T14:04:30;10.90;67.80
11005;DHT22;5555;59.622;16.556;2023-04-03T14:06:57;10.60;68.50
11005;DHT22;5555;59.622;16.556;2023-04-03T14:09:24;11.20;68.00
11005;DHT22;5555;59.622;16.556;2023-04-03T14:11:54;12.00;67.40
11005;DHT22;5555;59.622;16.556;2023-04-03T14:14:24;12.00;66.50
11005;DHT22;5555;59.622;16.556;2023-04-03T14:16:54;11.60;69.20
11005;DHT22;5555;59.622;16.556;2023-04-03T14:19:29;11.60;69.60
11005;DHT22;5555;59.622;16.556;2023-04-03T14:21:55;10.60;68.20
11005;DHT22;5555;59.622;16.556;2023-04-03T14:24:22;11.10;69.50
11005;DHT22;5555;59.622;16.556;2023-04-03T14:26:50;11.80;67.90
11005;DHT22;5555;59.622;16.556;2023-04-03T14:29:17;12.70;68.10
11005;DHT22;5555;59.622;16.556;2023-04-03T14:31:45;14.60;67.60
11005;DHT22;5555;59.622;16.556;2023-04-03T14:34:12;14.50;65.30
11005;DHT22;5555;59.622;16.556;2023-04-03T14:36:38;13.80;66.10
11005;DHT22;5555;59.622;16.556;2023-04-03T14:39:05;14.50;65.10
11005;DHT22;5555;59.622;16.556;2023-04-03T14:41:32;15.00;63.70
11005;DHT22;5555;59.622;16.556;2023-04-03T14:43:58;14.90;63.60
11005;DHT22;5555;59.622;16.556;2023-04-03T14:46:30;14.10;63.70
11005;DHT22;5555;59.622;16.556;2023-04-03T14:48:56;12.80;64.00
11005;DHT22;5555;59.622;16.556;2023-04-03T14:51:22;12.10;64.60
11005;DHT22;5555;59.622;16.556;2023-04-03T14:53:48;11.70;64.10
11005;DHT22;5555;59.622;16.556;2023-04-03T14:56:18;12.40;65.80
11005;DHT22;5555;59.622;16.556;2023-04-03T14:58:44;13.00;67.00
11005;DHT22;5555;59.622;16.556;2023-04-03T15:01:14;13.40;65.00
11005;DHT22;5555;59.622;16.556;2023-04-03T15:03:40;13.70;63.00
11005;DHT22;5555;59.622;16.556;2023-04-03T15:06:06;13.80;63.30
11005;DHT22;5555;59.622;16.556;2023-04-03T15:08:31;13.40;63.20
11005;DHT22;5555;59.622;16.556;2023-04-03T15:10:57;13.80;65.10
11005;DHT22;5555;59.622;16.556;2023-04-03T15:13:24;13.00;62.50
11005;DHT22;5555;59.622;16.556;2023-04-03T15:15:50;12.50;63.10
11005;DHT22;5555;59.622;16.556;2023-04-03T15:18:25;12.10;64.00
11005;DHT22;5555;59.622;16.556;2023-04-03T15:20:54;12.90;63.40
11005;DHT22;5555;59.622;16.556;2023-04-03T15:23:20;13.40;61.60
11005;DHT22;5555;59.622;16.556;2023-04-03T15:25:51;13.00;62.70
11005;DHT22;5555;59.622;16.556;2023-04-03T15:30:43;14.40;63.30
11005;DHT22;5555;59.622;16.556;2023-04-03T15:33:09;14.50;61.50
11005;DHT22;5555;59.622;16.556;2023-04-03T15:35:34;14.50;60.20
11005;DHT22;5555;59.622;16.556;2023-04-03T15:38:00;14.00;61.60
11005;DHT22;5555;59.622;16.556;2023-04-03T15:40:26;14.20;61.20
11005;DHT22;5555;59.622;16.556;2023-04-03T15:42:51;14.10;60.10
11005;DHT22;5555;59.622;16.556;2023-04-03T15:45:17;13.80;60.80
11005;DHT22;5555;59.622;16.556;2023-04-03T15:47:43;14.00;61.90
11005;DHT22;5555;59.622;16.556;2023-04-03T15:50:09;14.90;60.40
11005;DHT22;5555;59.622;16.556;2023-04-03T15:52:35;14.50;60.50
11005;DHT22;5555;59.622;16.556;2023-04-03T15:55:01;15.00;61.40
11005;DHT22;5555;59.622;16.556;2023-04-03T15:57:27;15.10;61.30
11005;DHT22;5555;59.622;16.556;2023-04-03T15:59:53;14.60;60.90
11005;DHT22;5555;59.622;16.556;2023-04-03T16:02:18;14.20;61.70
11005;DHT22;5555;59.622;16.556;2023-04-03T16:04:44;14.60;60.80
11005;DHT22;5555;59.622;16.556;2023-04-03T16:07:10;15.80;60.80
11005;DHT22;5555;59.622;16.556;2023-04-03T16:09:37;16.80;58.50
11005;DHT22;5555;59.622;16.556;2023-04-03T16:12:03;16.20;58.40
11005;DHT22;5555;59.622;16.556;2023-04-03T16:14:28;14.30;59.30
11005;DHT22;5555;59.622;16.556;2023-04-03T16:16:56;14.70;59.00
11005;DHT22;5555;59.622;16.556;2023-04-03T16:19:22;14.70;59.70
11005;DHT22;5555;59.622;16.556;2023-04-03T16:21:48;16.10;59.50
11005;DHT22;5555;59.622;16.556;2023-04-03T16:24:14;16.90;57.30
11005;DHT22;5555;59.622;16.556;2023-04-03T16:26:40;16.90;56.90
11005;DHT22;5555;59.622;16.556;2023-04-03T16:29:05;16.90;56.40
11005;DHT22;5555;59.622;16.556;2023-04-03T16:31:32;15.80;56.50
11005;DHT22;5555;59.622;16.556;2023-04-03T16:33:58;15.70;56.80
11005;DHT22;5555;59.622;16.556;2023-04-03T16:36:25;14.90;56.60
11005;DHT22;5555;59.622;16.556;2023-04-03T16:38:51;15.30;57.30
11005;DHT22;5555;59.622;16.556;2023-04-03T16:41:17;15.30;55.90
11005;DHT22;5555;59.622;16.556;2023-04-03T16:43:43;14.50;56.80
11005;DHT22;5555;59.622;16.556;2023-04-03T16:46:08;14.50;56.30
11005;DHT22;5555;59.622;16.556;2023-04-03T16:48:34;15.00;56.30
11005;DHT22;5555;59.622;16.556;2023-04-03T16:51:00;14.10;56.00
11005;DHT22;5555;59.622;16.556;2023-04-03T16:53:27;13.70;57.50
11005;DHT22;5555;59.622;16.556;2023-04-03T16:55:53;13.40;57.90
11005;DHT22;5555;59.622;16.556;2023-04-03T16:58:19;13.10;57.60
11005;DHT22;5555;59.622;16.556;2023-04-03T17:00:45;12.60;58.20
11005;DHT22;5555;59.622;16.556;2023-04-03T17:03:12;11.40;58.30
11005;DHT22;5555;59.622;16.556;2023-04-03T17:05:38;9.70;59.90
11005;DHT22;5555;59.622;16.556;2023-04-03T17:08:03;8.90;62.10
11005;DHT22;5555;59.622;16.556;2023-04-03T17:10:29;8.40;63.70
11005;DHT22;5555;59.622;16.556;2023-04-03T17:12:55;8.20;64.10
11005;DHT22;5555;59.622;16.556;2023-04-03T17:15:21;7.80;64.30
11005;DHT22;5555;59.622;16.556;2023-04-03T17:17:50;7.30;65.30
11005;DHT22;5555;59.622;16.556;2023-04-03T17:20:16;7.00;66.00
11005;DHT22;5555;59.622;16.556;2023-04-03T17:22:42;6.70;67.30
11005;DHT22;5555;59.622;16.556;2023-04-03T17:25:09;6.40;68.50
11005;DHT22;5555;59.622;16.556;2023-04-03T17:27:35;6.20;69.20
11005;DHT22;5555;59.622;16.556;2023-04-03T17:30:01;5.90;69.50
11005;DHT22;5555;59.622;16.556;2023-04-03T17:32:27;5.70;70.20
11005;DHT22;5555;59.622;16.556;2023-04-03T17:34:52;5.60;70.00
11005;DHT22;5555;59.622;16.556;2023-04-03T17:37:18;5.40;70.30
11005;DHT22;5555;59.622;16.556;2023-04-03T17:39:44;5.20;71.00
11005;DHT22;5555;59.622;16.556;2023-04-03T17:42:11;5.10;71.70
11005;DHT22;5555;59.622;16.556;2023-04-03T17:44:37;5.00;73.10
11005;DHT22;5555;59.622;16.556;2023-04-03T17:47:02;4.90;73.60
11005;DHT22;5555;59.622;16.556;2023-04-03T17:49:28;4.70;73.40
11005;DHT22;5555;59.622;16.556;2023-04-03T17:51:54;4.50;73.60
11005;DHT22;5555;59.622;16.556;2023-04-03T17:54:20;4.40;74.60
11005;DHT22;5555;59.622;16.556;2023-04-03T17:56:46;4.20;75.20
11005;DHT22;5555;59.622;16.556;2023-04-03T17:59:15;4.20;76.10